sensor_id;sensor_type;location;lat;lon;timestamp;pressure;altitude;pressure_sealevel;temperature;humidity
7532;BME280;3807;49.030;8.714;2022-07-23T00:00:48;99188.47;;;30.52;41.70
7532;BME280;3807;49.030;8.714;2022-07-23T00:03:13;99179.13;;;30.49;41.61
7532;BME280;3807;49.030;8.714;2022-07-23T00:05:39;99174.25;;;30.46;41.67
7532;BME280;3807;49.030;8.714;2022-07-23T00:08:05;99165.56;;;30.46;41.61
7532;BME280;3807;49.030;8.714;2022-07-23T00:10:31;99171.91;;;30.51;41.55
7532;BME280;3807;49.030;8.714;2022-07-23T00:12:56;99176.63;;;30.41;41.56
7532;BME280;3807;49.030;8.714;2022-07-23T00:15:22;99171.09;;;30.36;41.72
7532;BME280;3807;49.030;8.714;2022-07-23T00:17:47;99177.06;;;30.30;42.06
7532;BME280;3807;49.030;8.714;2022-07-23T00:20:13;99170.53;;;30.26;41.87
7532;BME280;3807;49.030;8.714;2022-07-23T00:22:46;99172.19;;;30.27;41.64
7532;BME280;3807;49.030;8.714;2022-07-23T00:25:11;99174.09;;;30.18;41.97
7532;BME280;3807;49.030;8.714;2022-07-23T00:27:37;99174.09;;;30.18;41.89
7532;BME280;3807;49.030;8.714;2022-07-23T00:30:03;99180.47;;;30.15;42.04
7532;BME280;3807;49.030;8.714;2022-07-23T00:32:28;99178.22;;;30.12;41.89
7532;BME280;3807;49.030;8.714;2022-07-23T00:34:53;99182.03;;;30.10;42.11
7532;BME280;3807;49.030;8.714;2022-07-23T00:37:19;99182.09;;;30.02;42.18
7532;BME280;3807;49.030;8.714;2022-07-23T00:39:44;99184.56;;;30.03;42.43
7532;BME280;3807;49.030;8.714;2022-07-23T00:42:09;99174.59;;;29.99;42.20
7532;BME280;3807;49.030;8.714;2022-07-23T00:44:35;99179.00;;;29.98;42.33
7532;BME280;3807;49.030;8.714;2022-07-23T00:47:00;99172.94;;;29.98;42.33
7532;BME280;3807;49.030;8.714;2022-07-23T00:49:28;99174.22;;;29.87;42.46
7532;BME280;3807;49.030;8.714;2022-07-23T00:51:54;99167.88;;;29.81;42.49
7532;BME280;3807;49.030;8.714;2022-07-23T00:54:22;99170.66;;;29.80;42.70
7532;BME280;3807;49.030;8.714;2022-07-23T00:56:48;99170.06;;;29.78;42.75
7532;BME280;3807;49.030;8.714;2022-07-23T00:59:14;99172.84;;;29.76;42.56
7532;BME280;3807;49.030;8.714;2022-07-23T01:01:40;99170.66;;;29.65;42.94
7532;BME280;3807;49.030;8.714;2022-07-23T01:04:06;99164.00;;;29.54;43.04
7532;BME280;3807;49.030;8.714;2022-07-23T01:06:35;99161.06;;;29.49;43.26
7532;BME280;3807;49.030;8.714;2022-07-23T01:09:02;99165.50;;;29.49;43.11
7532;BME280;3807;49.030;8.714;2022-07-23T01:11:28;99151.47;;;29.41;43.17
7532;BME280;3807;49.030;8.714;2022-07-23T01:13:54;99154.97;;;29.34;43.24
7532;BME280;3807;49.030;8.714;2022-07-23T01:16:19;99149.53;;;29.35;43.37
7532;BME280;3807;49.030;8.714;2022-07-23T01:18:44;99150.25;;;29.29;43.30
7532;BME280;3807;49.030;8.714;2022-07-23T01:21:12;99154.59;;;29.22;43.29
7532;BME280;3807;49.030;8.714;2022-07-23T01:23:40;99159.53;;;29.17;43.58
7532;BME280;3807;49.030;8.714;2022-07-23T01:26:06;99143.62;;;29.18;43.40
7532;BME280;3807;49.030;8.714;2022-07-23T01:28:31;99131.31;;;29.19;43.32
7532;BME280;3807;49.030;8.714;2022-07-23T01:30:57;99124.63;;;29.16;43.28
7532;BME280;3807;49.030;8.714;2022-07-23T01:33:23;99133.47;;;29.15;43.23
7532;BME280;3807;49.030;8.714;2022-07-23T01:35:48;99130.66;;;29.17;43.34
7532;BME280;3807;49.030;8.714;2022-07-23T01:38:13;99139.22;;;29.11;43.15
7532;BME280;3807;49.030;8.714;2022-07-23T01:40:39;99149.09;;;29.09;43.23
7532;BME280;3807;49.030;8.714;2022-07-23T01:43:04;99160.94;;;28.96;43.34
7532;BME280;3807;49.030;8.714;2022-07-23T01:45:30;99159.38;;;28.87;43.66
7532;BME280;3807;49.030;8.714;2022-07-23T01:47:55;99157.38;;;28.89;43.63
7532;BME280;3807;49.030;8.714;2022-07-23T01:50:20;99166.56;;;28.85;43.49
7532;BME280;3807;49.030;8.714;2022-07-23T01:52:46;99167.09;;;28.81;43.54
7532;BME280;3807;49.030;8.714;2022-07-23T01:55:11;99171.16;;;28.83;43.42
7532;BME280;3807;49.030;8.714;2022-07-23T01:57:37;99165.44;;;28.80;43.58
7532;BME280;3807;49.030;8.714;2022-07-23T02:00:02;99168.91;;;28.80;43.44
7532;BME280;3807;49.030;8.714;2022-07-23T02:02:28;99176.47;;;28.75;43.52
7532;BME280;3807;49.030;8.714;2022-07-23T02:04:53;99171.41;;;28.73;43.43
7532;BME280;3807;49.030;8.714;2022-07-23T02:07:19;99174.50;;;28.69;43.37
7532;BME280;3807;49.030;8.714;2022-07-23T02:09:44;99167.84;;;28.66;43.41
7532;BME280;3807;49.030;8.714;2022-07-23T02:12:10;99161.28;;;28.62;43.58
7532;BME280;3807;49.030;8.714;2022-07-23T02:14:35;99164.41;;;28.58;43.33
7532;BME280;3807;49.030;8.714;2022-07-23T02:17:00;99166.88;;;28.59;43.61
7532;BME280;3807;49.030;8.714;2022-07-23T02:19:26;99168.31;;;28.62;43.35
7532;BME280;3807;49.030;8.714;2022-07-23T02:21:52;99170.94;;;28.62;43.31
7532;BME280;3807;49.030;8.714;2022-07-23T02:24:17;99166.88;;;28.59;43.53
7532;BME280;3807;49.030;8.714;2022-07-23T02:26:43;99177.84;;;28.55;43.47
7532;BME280;3807;49.030;8.714;2022-07-23T02:29:08;99176.56;;;28.51;43.69
7532;BME280;3807;49.030;8.714;2022-07-23T02:31:34;99180.53;;;28.46;43.73
7532;BME280;3807;49.030;8.714;2022-07-23T02:34:00;99185.91;;;28.45;43.65
7532;BME280;3807;49.030;8.714;2022-07-23T02:36:25;99190.19;;;28.46;43.61
7532;BME280;3807;49.030;8.714;2022-07-23T02:38:51;99197.72;;;28.41;43.72
7532;BME280;3807;49.030;8.714;2022-07-23T02:41:16;99200.19;;;28.42;43.84
7532;BME280;3807;49.030;8.714;2022-07-23T02:43:42;99209.37;;;28.38;43.87
7532;BME280;3807;49.030;8.714;2022-07-23T02:46:07;99202.31;;;28.31;44.01
7532;BME280;3807;49.030;8.714;2022-07-23T02:48:33;99209.88;;;28.25;44.02
7532;BME280;3807;49.030;8.714;2022-07-23T02:50:58;99206.75;;;28.22;44.20
7532;BME280;3807;49.030;8.714;2022-07-23T02:53:23;99208.72;;;28.28;44.22
7532;BME280;3807;49.030;8.714;2022-07-23T02:55:49;99208.06;;;28.26;44.19
7532;BME280;3807;49.030;8.714;2022-07-23T02:58:14;99206.28;;;28.18;44.17
7532;BME280;3807;49.030;8.714;2022-07-23T03:00:39;99204.81;;;28.16;44.37
7532;BME280;3807;49.030;8.714;2022-07-23T03:03:05;99219.06;;;28.05;44.65
7532;BME280;3807;49.030;8.714;2022-07-23T03:05:31;99230.69;;;28.11;44.38
7532;BME280;3807;49.030;8.714;2022-07-23T03:07:57;99237.22;;;28.07;44.43
7532;BME280;3807;49.030;8.714;2022-07-23T03:10:22;99237.56;;;28.12;44.36
7532;BME280;3807;49.030;8.714;2022-07-23T03:12:47;99242.44;;;28.07;44.38
7532;BME280;3807;49.030;8.714;2022-07-23T03:15:13;99237.72;;;28.02;44.58
7532;BME280;3807;49.030;8.714;2022-07-23T03:17:38;99239.03;;;27.98;44.48
7532;BME280;3807;49.030;8.714;2022-07-23T03:20:04;99244.28;;;27.98;44.67
7532;BME280;3807;49.030;8.714;2022-07-23T03:22:29;99251.28;;;28.06;44.43
7532;BME280;3807;49.030;8.714;2022-07-23T03:24:55;99262.78;;;27.96;44.60
7532;BME280;3807;49.030;8.714;2022-07-23T03:27:24;99264.22;;;27.99;44.46
7532;BME280;3807;49.030;8.714;2022-07-23T03:29:52;99251.97;;;27.91;44.56
7532;BME280;3807;49.030;8.714;2022-07-23T03:32:17;99257.19;;;27.91;44.67
7532;BME280;3807;49.030;8.714;2022-07-23T03:34:43;99250.97;;;27.92;44.51
7532;BME280;3807;49.030;8.714;2022-07-23T03:37:08;99254.41;;;27.93;44.56
7532;BME280;3807;49.030;8.714;2022-07-23T03:39:33;99259.16;;;27.81;44.63
7532;BME280;3807;49.030;8.714;2022-07-23T03:41:59;99266.81;;;27.74;44.79
7532;BME280;3807;49.030;8.714;2022-07-23T03:44:24;99267.00;;;27.73;44.81
7532;BME280;3807;49.030;8.714;2022-07-23T03:46:49;99274.66;;;27.74;44.75
7532;BME280;3807;49.030;8.714;2022-07-23T03:49:15;99266.81;;;27.66;44.99
7532;BME280;3807;49.030;8.714;2022-07-23T03:51:40;99269.25;;;27.68;44.95
7532;BME280;3807;49.030;8.714;2022-07-23T03:54:05;99265.19;;;27.65;44.94
7532;BME280;3807;49.030;8.714;2022-07-23T03:56:31;99254.22;;;27.70;44.91
7532;BME280;3807;49.030;8.714;2022-07-23T03:58:56;99258.31;;;27.64;44.84
7532;BME280;3807;49.030;8.714;2022-07-23T04:01:22;99267.97;;;27.64;44.91
7532;BME280;3807;49.030;8.714;2022-07-23T04:03:47;99269.25;;;27.60;44.90
7532;BME280;3807;49.030;8.714;2022-07-23T04:06:12;99264.03;;;27.60;44.82
7532;BME280;3807;49.030;8.714;2022-07-23T04:08:38;99262.56;;;27.57;44.96
7532;BME280;3807;49.030;8.714;2022-07-23T04:11:03;99251.59;;;27.53;45.00
7532;BME280;3807;49.030;8.714;2022-07-23T04:13:29;99249.28;;;27.50;45.01
7532;BME280;3807;49.030;8.714;2022-07-23T04:15:54;99265.66;;;27.52;45.00
7532;BME280;3807;49.030;8.714;2022-07-23T04:18:20;99269.72;;;27.47;44.90
7532;BME280;3807;49.030;8.714;2022-07-23T04:20:49;99271.84;;;27.43;45.08
7532;BME280;3807;49.030;8.714;2022-07-23T04:23:15;99280.69;;;27.42;45.05
7532;BME280;3807;49.030;8.714;2022-07-23T04:25:41;99300.13;;;27.40;45.14
7532;BME280;3807;49.030;8.714;2022-07-23T04:28:06;99309.44;;;27.34;45.16
7532;BME280;3807;49.030;8.714;2022-07-23T04:30:31;99309.44;;;27.34;45.31
7532;BME280;3807;49.030;8.714;2022-07-23T04:32:57;99307.13;;;27.31;45.27
7532;BME280;3807;49.030;8.714;2022-07-23T04:35:22;99311.88;;;27.27;45.45
7532;BME280;3807;49.030;8.714;2022-07-23T04:37:47;99315.81;;;27.31;45.42
7532;BME280;3807;49.030;8.714;2022-07-23T04:40:13;99310.88;;;27.28;45.51
7532;BME280;3807;49.030;8.714;2022-07-23T04:42:39;99313.97;;;27.24;45.65
7532;BME280;3807;49.030;8.714;2022-07-23T04:45:04;99307.44;;;27.20;45.66
7532;BME280;3807;49.030;8.714;2022-07-23T04:47:30;99308.09;;;27.22;45.63
7532;BME280;3807;49.030;8.714;2022-07-23T04:49:56;99300.72;;;27.17;45.66
7532;BME280;3807;49.030;8.714;2022-07-23T04:52:21;99301.47;;;27.10;45.90
7532;BME280;3807;49.030;8.714;2022-07-23T04:54:47;99318.78;;;27.02;46.02
7532;BME280;3807;49.030;8.714;2022-07-23T04:57:12;99324.00;;;27.02;46.07
7532;BME280;3807;49.030;8.714;2022-07-23T04:59:37;99320.75;;;27.08;45.97
7532;BME280;3807;49.030;8.714;2022-07-23T05:02:03;99321.22;;;27.04;46.02
7532;BME280;3807;49.030;8.714;2022-07-23T05:04:28;99322.72;;;27.06;46.04
7532;BME280;3807;49.030;8.714;2022-07-23T05:06:53;99323.03;;;27.12;45.85
7532;BME280;3807;49.030;8.714;2022-07-23T05:09:19;99325.31;;;27.06;45.98
7532;BME280;3807;49.030;8.714;2022-07-23T05:11:44;99332.66;;;27.03;46.07
7532;BME280;3807;49.030;8.714;2022-07-23T05:14:10;99334.28;;;27.04;46.11
7532;BME280;3807;49.030;8.714;2022-07-23T05:16:37;99328.56;;;27.00;46.13
7532;BME280;3807;49.030;8.714;2022-07-23T05:19:03;99338.13;;;26.92;46.32
7532;BME280;3807;49.030;8.714;2022-07-23T05:21:28;99366.44;;;26.96;46.24
7532;BME280;3807;49.030;8.714;2022-07-23T05:23:54;99375.91;;;26.97;46.20
7532;BME280;3807;49.030;8.714;2022-07-23T05:26:19;99390.87;;;26.87;46.49
7532;BME280;3807;49.030;8.714;2022-07-23T05:28:44;99379.50;;;26.96;46.31
7532;BME280;3807;49.030;8.714;2022-07-23T05:31:10;99369.19;;;26.95;46.31
7532;BME280;3807;49.030;8.714;2022-07-23T05:33:35;99380.44;;;26.87;46.46
7532;BME280;3807;49.030;8.714;2022-07-23T05:36:04;99371.94;;;26.85;46.59
7532;BME280;3807;49.030;8.714;2022-07-23T05:38:31;99356.41;;;26.83;46.61
7532;BME280;3807;49.030;8.714;2022-07-23T05:40:56;99360.97;;;26.81;46.59
7532;BME280;3807;49.030;8.714;2022-07-23T05:43:22;99372.59;;;26.87;46.46
7532;BME280;3807;49.030;8.714;2022-07-23T05:45:47;99370.94;;;26.78;46.58
7532;BME280;3807;49.030;8.714;2022-07-23T05:48:12;99356.38;;;26.75;46.63
7532;BME280;3807;49.030;8.714;2022-07-23T05:50:38;99354.69;;;26.74;46.63
7532;BME280;3807;49.030;8.714;2022-07-23T05:53:03;99340.00;;;26.73;46.59
7532;BME280;3807;49.030;8.714;2022-07-23T05:55:29;99348.34;;;26.77;46.58
7532;BME280;3807;49.030;8.714;2022-07-23T05:57:56;99341.28;;;26.69;46.76
7532;BME280;3807;49.030;8.714;2022-07-23T06:00:22;99330.16;;;26.67;46.88
7532;BME280;3807;49.030;8.714;2022-07-23T06:02:47;99328.22;;;26.69;46.92
7532;BME280;3807;49.030;8.714;2022-07-23T06:05:13;99324.50;;;26.72;46.93
7532;BME280;3807;49.030;8.714;2022-07-23T06:07:38;99314.03;;;26.72;46.95
7532;BME280;3807;49.030;8.714;2022-07-23T06:10:04;99317.09;;;26.67;47.13
7532;BME280;3807;49.030;8.714;2022-07-23T06:12:29;99333.94;;;26.65;47.30
7532;BME280;3807;49.030;8.714;2022-07-23T06:14:55;99347.19;;;26.71;47.23
7532;BME280;3807;49.030;8.714;2022-07-23T06:17:20;99359.41;;;26.71;47.20
7532;BME280;3807;49.030;8.714;2022-07-23T06:19:46;99382.59;;;26.66;47.42
7532;BME280;3807;49.030;8.714;2022-07-23T06:22:11;99384.22;;;26.67;47.62
7532;BME280;3807;49.030;8.714;2022-07-23T06:24:37;99373.41;;;26.62;47.82
7532;BME280;3807;49.030;8.714;2022-07-23T06:27:03;99373.50;;;26.52;48.11
7532;BME280;3807;49.030;8.714;2022-07-23T06:29:28;99374.53;;;26.59;48.10
7532;BME280;3807;49.030;8.714;2022-07-23T06:31:54;99401.63;;;26.58;48.24
7532;BME280;3807;49.030;8.714;2022-07-23T06:34:19;99418.44;;;26.55;48.56
7532;BME280;3807;49.030;8.714;2022-07-23T06:36:44;99420.81;;;26.31;50.67
7532;BME280;3807;49.030;8.714;2022-07-23T06:39:10;99418.44;;;26.20;50.30
7532;BME280;3807;49.030;8.714;2022-07-23T06:41:35;99417.50;;;26.29;49.95
7532;BME280;3807;49.030;8.714;2022-07-23T06:44:01;99432.81;;;26.42;49.91
7532;BME280;3807;49.030;8.714;2022-07-23T06:46:26;99433.91;;;26.03;51.36
7532;BME280;3807;49.030;8.714;2022-07-23T06:48:51;99427.66;;;25.96;51.51
7532;BME280;3807;49.030;8.714;2022-07-23T06:51:17;99412.81;;;26.14;50.86
7532;BME280;3807;49.030;8.714;2022-07-23T06:53:42;99403.84;;;26.35;50.30
7532;BME280;3807;49.030;8.714;2022-07-23T06:56:07;99392.13;;;26.39;50.27
7532;BME280;3807;49.030;8.714;2022-07-23T06:58:33;99397.06;;;26.42;50.05
7532;BME280;3807;49.030;8.714;2022-07-23T07:00:58;99409.81;;;26.45;50.50
7532;BME280;3807;49.030;8.714;2022-07-23T07:03:24;99416.50;;;26.40;50.45
7532;BME280;3807;49.030;8.714;2022-07-23T07:05:49;99410.94;;;26.43;50.31
7532;BME280;3807;49.030;8.714;2022-07-23T07:08:15;99390.50;;;26.38;50.50
7532;BME280;3807;49.030;8.714;2022-07-23T07:10:40;99391.91;;;26.32;50.74
7532;BME280;3807;49.030;8.714;2022-07-23T07:13:06;99392.09;;;26.31;50.67
7532;BME280;3807;49.030;8.714;2022-07-23T07:15:31;99401.72;;;26.30;51.03
7532;BME280;3807;49.030;8.714;2022-07-23T07:17:56;99406.47;;;26.17;51.60
7532;BME280;3807;49.030;8.714;2022-07-23T07:20:22;99401.94;;;26.19;51.65
7532;BME280;3807;49.030;8.714;2022-07-23T07:22:48;99407.75;;;26.13;53.11
7532;BME280;3807;49.030;8.714;2022-07-23T07:25:14;99418.50;;;26.28;51.68
7532;BME280;3807;49.030;8.714;2022-07-23T07:27:39;99424.97;;;26.24;51.60
7532;BME280;3807;49.030;8.714;2022-07-23T07:30:05;99436.84;;;26.18;51.91
7532;BME280;3807;49.030;8.714;2022-07-23T07:32:31;99437.97;;;26.16;51.90
7532;BME280;3807;49.030;8.714;2022-07-23T07:34:58;99438.78;;;26.16;51.91
7532;BME280;3807;49.030;8.714;2022-07-23T07:37:23;99431.09;;;26.14;52.53
7532;BME280;3807;49.030;8.714;2022-07-23T07:39:48;99425.91;;;25.87;54.52
7532;BME280;3807;49.030;8.714;2022-07-23T07:42:14;99417.72;;;26.00;53.57
7532;BME280;3807;49.030;8.714;2022-07-23T07:44:39;99435.41;;;26.06;53.65
7532;BME280;3807;49.030;8.714;2022-07-23T07:47:04;99430.78;;;26.18;52.98
7532;BME280;3807;49.030;8.714;2022-07-23T07:49:30;99429.31;;;26.15;52.98
7532;BME280;3807;49.030;8.714;2022-07-23T07:51:55;99435.13;;;26.09;53.07
7532;BME280;3807;49.030;8.714;2022-07-23T07:54:20;99439.66;;;26.07;53.39
7532;BME280;3807;49.030;8.714;2022-07-23T07:56:46;99440.16;;;25.93;53.83
7532;BME280;3807;49.030;8.714;2022-07-23T07:59:11;99436.41;;;26.05;53.05
7532;BME280;3807;49.030;8.714;2022-07-23T08:01:37;99431.47;;;26.02;53.28
7532;BME280;3807;49.030;8.714;2022-07-23T08:04:02;99440.78;;;26.04;53.07
7532;BME280;3807;49.030;8.714;2022-07-23T08:06:28;99442.97;;;26.09;53.08
7532;BME280;3807;49.030;8.714;2022-07-23T08:08:53;99445.41;;;26.10;52.95
7532;BME280;3807;49.030;8.714;2022-07-23T08:11:18;99447.38;;;26.08;53.13
7532;BME280;3807;49.030;8.714;2022-07-23T08:13:44;99452.59;;;26.08;52.99
7532;BME280;3807;49.030;8.714;2022-07-23T08:16:10;99450.09;;;26.07;52.86
7532;BME280;3807;49.030;8.714;2022-07-23T08:18:35;99451.59;;;26.09;52.91
7532;BME280;3807;49.030;8.714;2022-07-23T08:21:01;99445.88;;;26.06;53.13
7532;BME280;3807;49.030;8.714;2022-07-23T08:23:26;99457.69;;;26.00;53.16
7532;BME280;3807;49.030;8.714;2022-07-23T08:25:52;99458.63;;;26.09;52.84
7532;BME280;3807;49.030;8.714;2022-07-23T08:28:18;99467.28;;;26.09;52.88
7532;BME280;3807;49.030;8.714;2022-07-23T08:30:44;99468.09;;;26.10;52.85
7532;BME280;3807;49.030;8.714;2022-07-23T08:33:13;99466.59;;;26.07;53.00
7532;BME280;3807;49.030;8.714;2022-07-23T08:35:40;99458.06;;;25.87;53.54
7532;BME280;3807;49.030;8.714;2022-07-23T08:38:09;99459.50;;;26.00;52.98
7532;BME280;3807;49.030;8.714;2022-07-23T08:40:37;99464.12;;;26.06;52.72
7532;BME280;3807;49.030;8.714;2022-07-23T08:43:08;99460.84;;;26.04;52.93
7532;BME280;3807;49.030;8.714;2022-07-23T08:45:38;99468.91;;;26.10;52.70
7532;BME280;3807;49.030;8.714;2022-07-23T08:48:06;99463.91;;;25.99;52.87
7532;BME280;3807;49.030;8.714;2022-07-23T08:50:32;99473.75;;;26.05;52.65
7532;BME280;3807;49.030;8.714;2022-07-23T08:53:00;99471.00;;;26.07;52.73
7532;BME280;3807;49.030;8.714;2022-07-23T08:55:26;99470.41;;;26.13;52.38
7532;BME280;3807;49.030;8.714;2022-07-23T08:57:52;99464.38;;;26.12;52.28
7532;BME280;3807;49.030;8.714;2022-07-23T09:00:20;99464.66;;;26.09;52.44
7532;BME280;3807;49.030;8.714;2022-07-23T09:02:46;99457.47;;;26.11;52.39
7532;BME280;3807;49.030;8.714;2022-07-23T09:05:12;99459.81;;;26.14;52.25
7532;BME280;3807;49.030;8.714;2022-07-23T09:08:07;99454.41;;;25.80;53.39
7532;BME280;3807;49.030;8.714;2022-07-23T09:10:56;99461.38;;;26.07;52.57
7532;BME280;3807;49.030;8.714;2022-07-23T09:15:54;99467.09;;;26.11;52.36
7532;BME280;3807;49.030;8.714;2022-07-23T09:18:30;99460.09;;;26.11;52.34
7532;BME280;3807;49.030;8.714;2022-07-23T09:24:02;99444.13;;;26.14;52.24
7532;BME280;3807;49.030;8.714;2022-07-23T09:26:28;99451.16;;;26.14;52.91
7532;BME280;3807;49.030;8.714;2022-07-23T09:28:58;99446.16;;;26.21;52.89
7532;BME280;3807;49.030;8.714;2022-07-23T09:31:25;99434.69;;;26.31;52.60
7532;BME280;3807;49.030;8.714;2022-07-23T09:34:10;99443.94;;;26.44;52.22
7532;BME280;3807;49.030;8.714;2022-07-23T09:36:37;99443.88;;;26.53;51.84
7532;BME280;3807;49.030;8.714;2022-07-23T09:39:03;99443.44;;;26.58;51.92
7532;BME280;3807;49.030;8.714;2022-07-23T09:41:37;99448.16;;;26.54;52.11
7532;BME280;3807;49.030;8.714;2022-07-23T09:44:08;99446.69;;;26.60;51.15
7532;BME280;3807;49.030;8.714;2022-07-23T09:46:35;99449.31;;;26.78;51.41
7532;BME280;3807;49.030;8.714;2022-07-23T09:49:10;99443.75;;;26.81;51.28
7532;BME280;3807;49.030;8.714;2022-07-23T09:52:02;99449.63;;;26.75;51.60
7532;BME280;3807;49.030;8.714;2022-07-23T09:56:58;99442.97;;;26.27;52.64
7532;BME280;3807;49.030;8.714;2022-07-23T09:59:27;99450.88;;;26.53;52.39
7532;BME280;3807;49.030;8.714;2022-07-23T10:01:55;99443.56;;;27.00;50.74
7532;BME280;3807;49.030;8.714;2022-07-23T10:04:23;99444.87;;;27.22;50.85
7532;BME280;3807;49.030;8.714;2022-07-23T10:06:52;99441.34;;;27.31;50.68
7532;BME280;3807;49.030;8.714;2022-07-23T10:09:23;99447.91;;;27.44;50.33
7532;BME280;3807;49.030;8.714;2022-07-23T10:11:50;99441.94;;;27.51;50.04
7532;BME280;3807;49.030;8.714;2022-07-23T10:14:16;99441.47;;;27.64;49.93
7532;BME280;3807;49.030;8.714;2022-07-23T10:16:41;99451.78;;;27.66;49.54
7532;BME280;3807;49.030;8.714;2022-07-23T10:19:07;99450.81;;;27.75;49.22
7532;BME280;3807;49.030;8.714;2022-07-23T10:21:45;99457.84;;;27.74;49.38
7532;BME280;3807;49.030;8.714;2022-07-23T10:24:30;99458.75;;;27.83;49.51
7532;BME280;3807;49.030;8.714;2022-07-23T10:29:55;99463.38;;;27.97;49.14
7532;BME280;3807;49.030;8.714;2022-07-23T10:35:48;99464.38;;;28.13;48.53
7532;BME280;3807;49.030;8.714;2022-07-23T10:38:25;99461.31;;;28.25;48.39
7532;BME280;3807;49.030;8.714;2022-07-23T10:43:19;99464.78;;;28.42;48.15
7532;BME280;3807;49.030;8.714;2022-07-23T10:45:44;99465.75;;;28.41;48.07
7532;BME280;3807;49.030;8.714;2022-07-23T10:48:25;99460.84;;;28.55;47.67
7532;BME280;3807;49.030;8.714;2022-07-23T10:51:15;99467.41;;;28.59;47.59
7532;BME280;3807;49.030;8.714;2022-07-23T10:53:59;99460.37;;;28.67;47.21
7532;BME280;3807;49.030;8.714;2022-07-23T10:59:24;99451.53;;;29.01;46.69
7532;BME280;3807;49.030;8.714;2022-07-23T11:01:50;99449.03;;;29.16;46.28
7532;BME280;3807;49.030;8.714;2022-07-23T11:04:15;99450.63;;;29.25;46.52
7532;BME280;3807;49.030;8.714;2022-07-23T11:09:40;99454.50;;;29.46;46.06
7532;BME280;3807;49.030;8.714;2022-07-23T11:12:31;99459.09;;;29.52;46.17
7532;BME280;3807;49.030;8.714;2022-07-23T11:15:13;99447.78;;;29.51;45.76
7532;BME280;3807;49.030;8.714;2022-07-23T11:25:04;99442.91;;;31.09;43.69
7532;BME280;3807;49.030;8.714;2022-07-23T11:27:40;99447.63;;;31.88;42.37
7532;BME280;3807;49.030;8.714;2022-07-23T11:30:11;99441.78;;;32.35;41.38
7532;BME280;3807;49.030;8.714;2022-07-23T11:35:34;99440.12;;;32.49;40.82
7532;BME280;3807;49.030;8.714;2022-07-23T11:38:08;99442.88;;;32.90;40.36
7532;BME280;3807;49.030;8.714;2022-07-23T11:40:38;99440.41;;;33.10;39.97
7532;BME280;3807;49.030;8.714;2022-07-23T11:43:09;99438.28;;;33.34;38.78
7532;BME280;3807;49.030;8.714;2022-07-23T11:45:38;99443.00;;;33.45;39.00
7532;BME280;3807;49.030;8.714;2022-07-23T11:48:05;99449.88;;;33.39;38.87
7532;BME280;3807;49.030;8.714;2022-07-23T11:50:31;99443.00;;;33.45;39.05
7532;BME280;3807;49.030;8.714;2022-07-23T11:52:57;99440.44;;;33.58;37.61
7532;BME280;3807;49.030;8.714;2022-07-23T11:55:22;99435.44;;;33.77;38.12
7532;BME280;3807;49.030;8.714;2022-07-23T11:57:50;99442.53;;;33.70;34.83
7532;BME280;3807;49.030;8.714;2022-07-23T12:00:19;99439.09;;;33.89;35.25
7532;BME280;3807;49.030;8.714;2022-07-23T12:02:47;99439.41;;;34.07;36.61
7532;BME280;3807;49.030;8.714;2022-07-23T12:05:15;99429.00;;;34.12;36.99
7532;BME280;3807;49.030;8.714;2022-07-23T12:07:43;99434.53;;;34.24;36.39
7532;BME280;3807;49.030;8.714;2022-07-23T12:10:20;99433.31;;;34.27;36.46
7532;BME280;3807;49.030;8.714;2022-07-23T12:12:47;99432.50;;;34.26;36.25
7532;BME280;3807;49.030;8.714;2022-07-23T12:15:15;99430.03;;;34.38;35.69
7532;BME280;3807;49.030;8.714;2022-07-23T12:17:44;99428.87;;;34.54;36.00
7532;BME280;3807;49.030;8.714;2022-07-23T12:20:13;99420.53;;;34.64;35.90
7532;BME280;3807;49.030;8.714;2022-07-23T12:22:41;99422.75;;;34.67;34.88
7532;BME280;3807;49.030;8.714;2022-07-23T12:25:12;99436.19;;;34.58;35.94
7532;BME280;3807;49.030;8.714;2022-07-23T12:27:38;99423.31;;;34.89;35.56
7532;BME280;3807;49.030;8.714;2022-07-23T12:30:20;99424.75;;;34.91;35.47
7532;BME280;3807;49.030;8.714;2022-07-23T12:32:48;99422.69;;;35.00;35.33
7532;BME280;3807;49.030;8.714;2022-07-23T12:35:14;99422.13;;;35.04;35.19
7532;BME280;3807;49.030;8.714;2022-07-23T12:37:42;99416.78;;;35.11;34.81
7532;BME280;3807;49.030;8.714;2022-07-23T12:40:27;99422.50;;;35.08;34.90
7532;BME280;3807;49.030;8.714;2022-07-23T12:45:28;99423.63;;;35.32;34.05
7532;BME280;3807;49.030;8.714;2022-07-23T12:47:55;99424.25;;;35.27;34.99
7532;BME280;3807;49.030;8.714;2022-07-23T12:53:32;99410.56;;;35.44;34.87
7532;BME280;3807;49.030;8.714;2022-07-23T12:56:09;99412.81;;;35.40;34.90
7532;BME280;3807;49.030;8.714;2022-07-23T12:58:47;99401.44;;;35.33;33.22
7532;BME280;3807;49.030;8.714;2022-07-23T13:06:21;99420.78;;;35.34;34.97
7532;BME280;3807;49.030;8.714;2022-07-23T13:08:47;99414.19;;;35.49;34.49
7532;BME280;3807;49.030;8.714;2022-07-23T13:11:12;99410.84;;;35.29;33.35
7532;BME280;3807;49.030;8.714;2022-07-23T13:13:38;99408.47;;;34.88;33.05
7532;BME280;3807;49.030;8.714;2022-07-23T13:16:03;99410.09;;;34.82;32.92
7532;BME280;3807;49.030;8.714;2022-07-23T13:18:29;99408.09;;;35.42;32.43
7532;BME280;3807;49.030;8.714;2022-07-23T13:20:55;99412.22;;;35.83;33.92
7532;BME280;3807;49.030;8.714;2022-07-23T13:23:21;99417.69;;;35.88;33.67
7532;BME280;3807;49.030;8.714;2022-07-23T13:25:46;99410.94;;;35.92;33.08
7532;BME280;3807;49.030;8.714;2022-07-23T13:28:13;99417.13;;;35.79;33.71
7532;BME280;3807;49.030;8.714;2022-07-23T13:30:39;99410.69;;;36.00;33.01
7532;BME280;3807;49.030;8.714;2022-07-23T13:33:05;99410.66;;;35.69;33.73
7532;BME280;3807;49.030;8.714;2022-07-23T13:35:31;99412.31;;;36.01;33.68
7532;BME280;3807;49.030;8.714;2022-07-23T13:37:57;99407.09;;;36.20;33.36
7532;BME280;3807;49.030;8.714;2022-07-23T13:40:22;99409.91;;;36.25;33.29
7532;BME280;3807;49.030;8.714;2022-07-23T13:42:48;99412.28;;;36.33;31.96
7532;BME280;3807;49.030;8.714;2022-07-23T13:45:13;99407.53;;;36.17;32.52
7532;BME280;3807;49.030;8.714;2022-07-23T13:47:39;99408.28;;;35.61;32.32
7532;BME280;3807;49.030;8.714;2022-07-23T13:50:05;99406.00;;;36.28;32.39
7532;BME280;3807;49.030;8.714;2022-07-23T13:52:30;99409.41;;;36.35;33.02
7532;BME280;3807;49.030;8.714;2022-07-23T13:54:59;99406.47;;;36.43;32.85
7532;BME280;3807;49.030;8.714;2022-07-23T13:57:24;99399.37;;;36.37;32.27
7532;BME280;3807;49.030;8.714;2022-07-23T13:59:49;99403.72;;;36.31;32.91
7532;BME280;3807;49.030;8.714;2022-07-23T14:02:16;99394.81;;;35.94;31.35
7532;BME280;3807;49.030;8.714;2022-07-23T14:04:42;99402.56;;;36.27;32.93